Time,TemperatureF,DewpointF,PressureIn,WindDirection,WindDirectionDegrees,WindSpeedMPH,WindSpeedGustMPH,Humidity,HourlyPrecipIn,Conditions,Clouds,dailyrainin,SoftwareType,DateUTC
2013-11-20 00:01:00,40.8,29.6,30.24,East,90,0.0,0.0,64,0.00,,CLR,0.00,VWS V12.08,2013-11-20 05:01:00,
2013-11-20 00:02:00,40.8,29.6,30.24,East,90,0.0,0.0,64,0.00,,CLR,0.00,VWS V12.08,2013-11-20 05:02:00,
2013-11-20 00:03:00,40.8,29.6,30.24,East,90,0.0,0.0,64,0.00,,CLR,0.00,VWS V12.08,2013-11-20 05:03:00,
2013-11-20 00:05:00,40.8,29.6,30.24,East,90,0.0,0.0,64,0.00,,CLR,0.00,VWS V12.08,2013-11-20 05:05:00,
2013-11-20 00:06:00,40.8,29.6,30.24,East,90,0.0,0.0,64,0.00,,CLR,0.00,VWS V12.08,2013-11-20 05:06:00,
2013-11-20 00:11:00,40.8,29.6,30.24,East,90,0.0,0.0,64,0.00,,CLR,0.00,VWS V12.08,2013-11-20 05:11:00,
2013-11-20 00:16:00,40.8,29.6,30.25,East,90,0.0,0.0,64,0.00,,CLR,0.00,VWS V12.08,2013-11-20 05:16:00,
2013-11-20 00:21:00,40.8,29.2,30.25,East,90,0.0,0.0,63,0.00,,CLR,0.00,VWS V12.08,2013-11-20 05:21:00,
2013-11-20 00:26:00,40.8,29.6,30.25,East,90,0.0,0.0,64,0.00,,CLR,0.00,VWS V12.08,2013-11-20 05:26:00,
2013-11-20 00:31:00,40.6,29.4,30.25,East,90,0.0,0.0,64,0.00,,CLR,0.00,VWS V12.08,2013-11-20 05:31:00,
2013-11-20 00:36:00,40.6,29.8,30.24,East,90,0.0,0.0,65,0.00,,CLR,0.00,VWS V12.08,2013-11-20 05:36:00,
2013-11-20 00:41:00,40.5,29.6,30.25,ESE,112,0.0,0.0,65,0.00,,CLR,0.00,VWS V12.08,2013-11-20 05:41:00,
2013-11-20 00:46:00,40.5,30.0,30.25,ESE,112,0.0,0.0,66,0.00,,CLR,0.00,VWS V12.08,2013-11-20 05:46:00,
2013-11-20 00:51:00,40.3,29.8,30.25,ESE,112,0.0,0.0,66,0.00,,CLR,0.00,VWS V12.08,2013-11-20 05:51:00,
2013-11-20 00:56:00,40.1,29.7,30.25,ESE,112,0.0,0.0,66,0.00,,CLR,0.00,VWS V12.08,2013-11-20 05:56:00,
2013-11-20 01:01:00,39.9,29.9,30.25,ESE,112,0.0,0.0,67,0.00,,CLR,0.00,VWS V12.08,2013-11-20 06:01:00,
2013-11-20 01:06:00,39.9,29.9,30.26,ESE,112,0.0,0.0,67,0.00,,CLR,0.00,VWS V12.08,2013-11-20 06:06:00,
2013-11-20 01:11:00,39.7,29.7,30.25,ESE,112,0.0,0.0,67,0.00,,CLR,0.00,VWS V12.08,2013-11-20 06:11:00,
2013-11-20 01:16:00,39.4,29.7,30.25,East,90,0.0,0.0,68,0.00,,CLR,0.00,VWS V12.08,2013-11-20 06:16:00,
2013-11-20 01:21:00,39.4,29.7,30.26,ESE,112,0.0,0.0,68,0.00,,CLR,0.00,VWS V12.08,2013-11-20 06:21:00,
2013-11-20 01:26:00,39.4,29.7,30.26,ESE,112,0.0,0.0,68,0.00,,CLR,0.00,VWS V12.08,2013-11-20 06:26:00,
2013-11-20 01:31:00,39.4,29.7,30.25,ESE,112,0.0,0.0,68,0.00,,CLR,0.00,VWS V12.08,2013-11-20 06:31:00,
2013-11-20 01:36:00,38.8,29.2,30.26,East,90,0.0,0.0,68,0.00,,CLR,0.00,VWS V12.08,2013-11-20 06:36:00,
2013-11-20 01:41:00,38.5,28.9,30.26,East,90,0.0,0.0,68,0.00,,CLR,0.00,VWS V12.08,2013-11-20 06:41:00,
2013-11-20 01:46:00,38.5,28.9,30.26,East,90,0.0,0.0,68,0.00,,CLR,0.00,VWS V12.08,2013-11-20 06:46:00,
2013-11-20 01:51:00,38.3,28.7,30.26,East,90,0.0,0.0,68,0.00,,CLR,0.00,VWS V12.08,2013-11-20 06:51:00,
2013-11-20 01:56:00,38.3,29.0,30.26,East,90,0.0,0.0,69,0.00,,CLR,0.00,VWS V12.08,2013-11-20 06:56:00,
2013-11-20 02:01:00,38.1,28.9,30.26,East,90,0.0,0.0,69,0.00,,CLR,0.00,VWS V12.08,2013-11-20 07:01:00,
2013-11-20 02:06:00,38.1,28.9,30.26,East,90,0.0,0.0,69,0.00,,CLR,0.00,VWS V12.08,2013-11-20 07:06:00,
2013-11-20 02:11:00,38.1,28.9,30.26,East,90,0.0,0.0,69,0.00,,CLR,0.00,VWS V12.08,2013-11-20 07:11:00,
2013-11-20 02:16:00,37.9,29.0,30.27,East,90,0.0,0.0,70,0.00,,CLR,0.00,VWS V12.08,2013-11-20 07:16:00,
2013-11-20 02:21:00,37.9,29.0,30.27,East,90,0.0,0.0,70,0.00,,CLR,0.00,VWS V12.08,2013-11-20 07:21:00,
2013-11-20 02:26:00,37.9,29.0,30.28,East,90,0.0,0.0,70,0.00,,CLR,0.00,VWS V12.08,2013-11-20 07:26:00,
2013-11-20 02:31:00,37.8,28.9,30.28,East,90,0.0,0.0,70,0.00,,CLR,0.00,VWS V12.08,2013-11-20 07:31:00,
2013-11-20 02:36:00,37.8,28.9,30.29,East,90,0.0,0.0,70,0.00,,CLR,0.00,VWS V12.08,2013-11-20 07:36:00,
2013-11-20 02:41:00,37.8,28.9,30.29,East,90,0.0,0.0,70,0.00,,CLR,0.00,VWS V12.08,2013-11-20 07:41:00,
2013-11-20 02:46:00,37.6,29.0,30.29,East,90,0.0,0.0,71,0.00,,CLR,0.00,VWS V12.08,2013-11-20 07:46:00,
2013-11-20 02:51:00,37.6,29.0,30.29,East,90,0.0,0.0,71,0.00,,CLR,0.00,VWS V12.08,2013-11-20 07:51:00,
2013-11-20 02:56:00,37.2,28.7,30.29,East,90,0.0,0.0,71,0.00,,CLR,0.00,VWS V12.08,2013-11-20 07:56:00,
2013-11-20 03:01:00,37.2,28.7,30.29,East,90,0.0,0.0,71,0.00,,CLR,0.00,VWS V12.08,2013-11-20 08:01:00,
2013-11-20 03:06:00,37.2,29.0,30.29,East,90,0.0,0.0,72,0.00,,CLR,0.00,VWS V12.08,2013-11-20 08:06:00,
2013-11-20 03:11:00,37.0,28.9,30.29,East,90,0.0,0.0,72,0.00,,CLR,0.00,VWS V12.08,2013-11-20 08:11:00,
2013-11-20 03:16:00,37.0,29.2,30.29,East,90,0.0,0.0,73,0.00,,CLR,0.00,VWS V12.08,2013-11-20 08:16:00,
2013-11-20 03:21:00,37.2,29.4,30.29,East,90,0.0,0.0,73,0.00,,CLR,0.00,VWS V12.08,2013-11-20 08:21:00,
2013-11-20 03:26:00,37.2,29.4,30.29,East,90,0.0,0.0,73,0.00,,CLR,0.00,VWS V12.08,2013-11-20 08:26:00,
2013-11-20 03:31:00,37.2,29.4,30.29,East,90,0.0,0.0,73,0.00,,CLR,0.00,VWS V12.08,2013-11-20 08:31:00,
2013-11-20 03:36:00,37.2,29.4,30.29,East,90,0.0,0.0,73,0.00,,CLR,0.00,VWS V12.08,2013-11-20 08:36:00,
2013-11-20 03:41:00,37.0,29.2,30.29,East,90,0.0,0.0,73,0.00,,CLR,0.00,VWS V12.08,2013-11-20 08:41:00,
2013-11-20 03:46:00,37.2,29.4,30.29,East,90,0.0,0.0,73,0.00,,CLR,0.00,VWS V12.08,2013-11-20 08:46:00,
2013-11-20 03:51:00,37.0,28.9,30.29,East,90,0.0,0.0,72,0.00,,CLR,0.00,VWS V12.08,2013-11-20 08:51:00,
2013-11-20 03:56:00,36.9,28.7,30.29,East,90,0.0,0.0,72,0.00,,CLR,0.00,VWS V12.08,2013-11-20 08:56:00,
2013-11-20 04:01:00,36.7,28.5,30.29,East,90,0.0,0.0,72,0.00,,CLR,0.00,VWS V12.08,2013-11-20 09:01:00,
2013-11-20 04:06:00,36.5,28.4,30.30,East,90,0.0,0.0,72,0.00,,CLR,0.00,VWS V12.08,2013-11-20 09:06:00,
2013-11-20 04:11:00,36.3,28.2,30.30,East,90,0.0,0.0,72,0.00,,CLR,0.00,VWS V12.08,2013-11-20 09:11:00,
2013-11-20 04:16:00,36.1,28.0,30.30,East,90,0.0,0.0,72,0.00,,CLR,0.00,VWS V12.08,2013-11-20 09:16:00,
2013-11-20 04:21:00,36.0,27.8,30.30,East,90,0.0,0.0,72,0.00,,CLR,0.00,VWS V12.08,2013-11-20 09:21:00,
2013-11-20 04:26:00,36.0,27.8,30.31,East,90,0.0,0.0,72,0.00,,CLR,0.00,VWS V12.08,2013-11-20 09:26:00,
2013-11-20 04:31:00,35.8,28.0,30.30,East,90,0.0,0.0,73,0.00,,CLR,0.00,VWS V12.08,2013-11-20 09:31:00,
2013-11-20 04:36:00,35.8,28.0,30.30,East,90,0.0,0.0,73,0.00,,CLR,0.00,VWS V12.08,2013-11-20 09:36:00,
2013-11-20 04:41:00,35.6,28.1,30.31,East,90,0.0,0.0,74,0.00,,CLR,0.00,VWS V12.08,2013-11-20 09:41:00,
2013-11-20 04:46:00,35.2,27.5,30.31,East,90,0.0,0.0,73,0.00,,CLR,0.00,VWS V12.08,2013-11-20 09:46:00,
2013-11-20 04:51:00,35.2,27.5,30.31,East,90,0.0,0.0,73,0.00,,CLR,0.00,VWS V12.08,2013-11-20 09:51:00,
2013-11-20 04:56:00,34.9,27.1,30.31,East,90,0.0,0.0,73,0.00,,CLR,0.00,VWS V12.08,2013-11-20 09:56:00,
2013-11-20 05:01:00,34.9,27.1,30.32,East,90,0.0,0.0,73,0.00,,CLR,0.00,VWS V12.08,2013-11-20 10:01:00,
2013-11-20 05:06:00,34.3,26.9,30.32,East,90,0.0,0.0,74,0.00,,CLR,0.00,VWS V12.08,2013-11-20 10:06:00,
2013-11-20 05:11:00,34.3,26.9,30.32,East,90,0.0,0.0,74,0.00,,CLR,0.00,VWS V12.08,2013-11-20 10:11:00,
2013-11-20 05:16:00,34.2,27.1,30.33,East,90,0.0,0.0,75,0.00,,CLR,0.00,VWS V12.08,2013-11-20 10:16:00,
2013-11-20 05:21:00,34.2,27.1,30.33,East,90,0.0,0.0,75,0.00,,CLR,0.00,VWS V12.08,2013-11-20 10:21:00,
2013-11-20 05:26:00,33.8,26.7,30.32,East,90,0.0,0.0,75,0.00,,CLR,0.00,VWS V12.08,2013-11-20 10:26:00,
2013-11-20 05:31:00,33.6,26.6,30.32,East,90,0.0,0.0,75,0.00,,CLR,0.00,VWS V12.08,2013-11-20 10:31:00,
2013-11-20 05:36:00,33.6,26.6,30.32,East,90,0.0,0.0,75,0.00,,CLR,0.00,VWS V12.08,2013-11-20 10:36:00,
2013-11-20 05:41:00,33.6,26.6,30.32,East,90,0.0,0.0,75,0.00,,CLR,0.00,VWS V12.08,2013-11-20 10:41:00,
2013-11-20 05:46:00,33.3,26.2,30.32,East,90,0.0,0.0,75,0.00,,CLR,0.00,VWS V12.08,2013-11-20 10:46:00,
2013-11-20 05:51:00,33.3,26.5,30.32,East,90,0.0,0.0,76,0.00,,CLR,0.00,VWS V12.08,2013-11-20 10:51:00,
2013-11-20 05:56:00,33.1,26.4,30.32,East,90,0.0,0.0,76,0.00,,CLR,0.00,VWS V12.08,2013-11-20 10:56:00,
2013-11-20 06:01:00,33.1,26.4,30.33,East,90,0.0,0.0,76,0.00,,CLR,0.00,VWS V12.08,2013-11-20 11:01:00,
2013-11-20 06:06:00,33.1,26.4,30.33,East,90,0.0,0.0,76,0.00,,CLR,0.00,VWS V12.08,2013-11-20 11:06:00,
2013-11-20 06:11:00,33.1,26.0,30.33,East,90,0.0,0.0,75,0.00,,CLR,0.00,VWS V12.08,2013-11-20 11:11:00,
2013-11-20 06:16:00,33.1,26.0,30.33,East,90,0.0,0.0,75,0.00,,CLR,0.00,VWS V12.08,2013-11-20 11:16:00,
2013-11-20 06:21:00,33.1,26.0,30.33,East,90,0.0,0.0,75,0.00,,CLR,0.00,VWS V12.08,2013-11-20 11:21:00,
2013-11-20 06:26:00,32.9,25.9,30.34,East,90,0.0,0.0,75,0.00,,CLR,0.00,VWS V12.08,2013-11-20 11:26:00,
2013-11-20 06:31:00,32.9,25.9,30.34,East,90,0.0,0.0,75,0.00,,CLR,0.00,VWS V12.08,2013-11-20 11:31:00,
2013-11-20 06:36:00,32.7,25.7,30.35,East,90,0.0,0.0,75,0.00,,CLR,0.00,VWS V12.08,2013-11-20 11:36:00,
2013-11-20 06:41:00,32.7,25.7,30.35,East,90,0.0,0.0,75,0.00,,CLR,0.00,VWS V12.08,2013-11-20 11:41:00,
2013-11-20 06:46:00,32.5,25.5,30.35,East,90,0.0,0.0,75,0.00,,CLR,0.00,VWS V12.08,2013-11-20 11:46:00,
2013-11-20 06:51:00,32.2,25.5,30.35,East,90,0.0,0.0,76,0.00,,CLR,0.00,VWS V12.08,2013-11-20 11:51:00,
2013-11-20 06:56:00,32.2,25.5,30.35,East,90,0.0,0.0,76,0.00,,CLR,0.00,VWS V12.08,2013-11-20 11:56:00,
2013-11-20 07:01:00,31.8,25.1,30.36,East,90,0.0,0.0,76,0.00,,CLR,0.00,VWS V12.08,2013-11-20 12:01:00,
2013-11-20 07:06:00,32.0,25.3,30.36,East,90,0.0,0.0,76,0.00,,CLR,0.00,VWS V12.08,2013-11-20 12:06:00,
2013-11-20 07:11:00,31.8,25.1,30.36,East,90,0.0,0.0,76,0.00,,CLR,0.00,VWS V12.08,2013-11-20 12:11:00,
2013-11-20 07:16:00,32.2,25.5,30.36,East,90,0.0,0.0,76,0.00,,CLR,0.00,VWS V12.08,2013-11-20 12:16:00,
2013-11-20 07:21:00,32.2,25.5,30.36,East,90,0.0,0.0,76,0.00,,CLR,0.00,VWS V12.08,2013-11-20 12:21:00,
2013-11-20 07:26:00,32.2,25.5,30.37,East,90,0.0,0.0,76,0.00,,CLR,0.00,VWS V12.08,2013-11-20 12:26:00,
2013-11-20 07:31:00,32.2,25.5,30.37,East,90,0.0,0.0,76,0.00,,CLR,0.00,VWS V12.08,2013-11-20 12:31:00,
2013-11-20 07:36:00,32.2,25.5,30.37,East,90,0.0,0.0,76,0.00,,CLR,0.00,VWS V12.08,2013-11-20 12:36:00,
2013-11-20 07:41:00,32.2,25.5,30.37,East,90,0.0,0.0,76,0.00,,CLR,0.00,VWS V12.08,2013-11-20 12:41:00,
2013-11-20 07:46:00,32.2,25.8,30.37,East,90,0.0,0.0,77,0.00,,CLR,0.00,VWS V12.08,2013-11-20 12:46:00,
2013-11-20 07:51:00,32.2,25.8,30.37,East,90,0.0,0.0,77,0.00,,CLR,0.00,VWS V12.08,2013-11-20 12:51:00,
2013-11-20 07:56:00,32.2,25.8,30.37,East,90,0.0,0.0,77,0.00,,CLR,0.00,VWS V12.08,2013-11-20 12:56:00,
2013-11-20 08:01:00,32.4,26.0,30.37,East,90,0.0,0.0,77,0.00,,CLR,0.00,VWS V12.08,2013-11-20 13:01:00,
2013-11-20 08:06:00,32.5,26.1,30.37,East,90,0.0,0.0,77,0.00,,CLR,0.00,VWS V12.08,2013-11-20 13:06:00,
2013-11-20 08:11:00,32.7,26.3,30.37,East,90,0.0,0.0,77,0.00,,CLR,0.00,VWS V12.08,2013-11-20 13:11:00,
2013-11-20 08:16:00,32.7,26.3,30.37,East,90,0.0,0.0,77,0.00,,CLR,0.00,VWS V12.08,2013-11-20 13:16:00,
2013-11-20 08:21:00,33.1,26.7,30.38,East,90,0.0,0.0,77,0.00,,CLR,0.00,VWS V12.08,2013-11-20 13:21:00,
2013-11-20 08:26:00,33.1,26.7,30.39,East,90,0.0,0.0,77,0.00,,CLR,0.00,VWS V12.08,2013-11-20 13:26:00,
2013-11-20 08:31:00,33.8,27.4,30.39,East,90,0.0,0.0,77,0.00,,CLR,0.00,VWS V12.08,2013-11-20 13:31:00,
2013-11-20 08:36:00,34.3,27.2,30.39,East,90,0.0,0.0,75,0.00,,CLR,0.00,VWS V12.08,2013-11-20 13:36:00,
2013-11-20 08:41:00,34.3,27.2,30.39,East,90,0.0,0.0,75,0.00,,CLR,0.00,VWS V12.08,2013-11-20 13:41:00,
2013-11-20 08:46:00,34.9,27.5,30.39,East,90,0.0,0.0,74,0.00,,CLR,0.00,VWS V12.08,2013-11-20 13:46:00,
2013-11-20 08:51:00,35.2,27.8,30.39,East,90,0.0,0.0,74,0.00,,CLR,0.00,VWS V12.08,2013-11-20 13:51:00,
2013-11-20 08:56:00,35.6,28.1,30.39,East,90,0.0,0.0,74,0.00,,CLR,0.00,VWS V12.08,2013-11-20 13:56:00,
2013-11-20 09:01:00,36.1,28.3,30.39,East,90,0.0,0.0,73,0.00,,CLR,0.00,VWS V12.08,2013-11-20 14:01:00,
2013-11-20 09:06:00,36.5,28.4,30.40,East,90,0.0,0.0,72,0.00,,CLR,0.00,VWS V12.08,2013-11-20 14:06:00,
2013-11-20 09:11:00,37.2,28.7,30.40,NNW,338,0.0,0.0,71,0.00,,CLR,0.00,VWS V12.08,2013-11-20 14:11:00,
2013-11-20 09:16:00,37.4,28.5,30.40,NW,315,0.0,2.2,70,0.00,,CLR,0.00,VWS V12.08,2013-11-20 14:16:00,
2013-11-20 09:21:00,37.8,28.5,30.40,NNW,338,0.0,0.0,69,0.00,,CLR,0.00,VWS V12.08,2013-11-20 14:21:00,
2013-11-20 09:26:00,37.9,28.7,30.40,West,270,0.0,1.6,69,0.00,,CLR,0.00,VWS V12.08,2013-11-20 14:26:00,
2013-11-20 09:31:00,38.5,29.2,30.39,ENE,68,0.0,5.1,69,0.00,,CLR,0.00,VWS V12.08,2013-11-20 14:31:00,
2013-11-20 09:36:00,38.8,29.2,30.39,NNE,22,0.7,5.1,68,0.00,,CLR,0.00,VWS V12.08,2013-11-20 14:36:00,
2013-11-20 09:41:00,39.4,29.0,30.40,NNW,338,0.0,0.4,66,0.00,,CLR,0.00,VWS V12.08,2013-11-20 14:41:00,
2013-11-20 09:46:00,39.7,29.3,30.40,East,90,0.0,3.6,66,0.00,,CLR,0.00,VWS V12.08,2013-11-20 14:46:00,
2013-11-20 09:51:00,40.1,29.3,30.40,WNW,292,0.0,3.6,65,0.00,,CLR,0.00,VWS V12.08,2013-11-20 14:51:00,
2013-11-20 09:56:00,40.5,29.6,30.40,NE,45,0.9,4.0,65,0.00,,CLR,0.00,VWS V12.08,2013-11-20 14:56:00,
2013-11-20 10:01:00,40.8,29.6,30.40,ENE,68,0.4,0.9,64,0.00,,CLR,0.00,VWS V12.08,2013-11-20 15:01:00,
2013-11-20 10:06:00,41.2,29.6,30.40,East,90,0.0,0.9,63,0.00,,CLR,0.00,VWS V12.08,2013-11-20 15:06:00,
2013-11-20 10:11:00,41.5,29.5,30.40,ENE,68,0.0,4.0,62,0.00,,CLR,0.00,VWS V12.08,2013-11-20 15:11:00,
2013-11-20 10:16:00,41.7,29.7,30.40,ENE,68,0.0,5.1,62,0.00,,CLR,0.00,VWS V12.08,2013-11-20 15:16:00,
2013-11-20 10:21:00,42.1,29.6,30.39,NNE,22,0.0,4.3,61,0.00,,CLR,0.00,VWS V12.08,2013-11-20 15:21:00,
2013-11-20 10:26:00,42.3,29.4,30.40,NW,315,0.0,4.3,60,0.00,,CLR,0.00,VWS V12.08,2013-11-20 15:26:00,
2013-11-20 10:31:00,42.4,29.5,30.39,North,0,2.7,4.3,60,0.00,,CLR,0.00,VWS V12.08,2013-11-20 15:31:00,
2013-11-20 10:36:00,42.8,29.9,30.39,East,90,2.7,4.3,60,0.00,,CLR,0.00,VWS V12.08,2013-11-20 15:36:00,
2013-11-20 10:41:00,43.0,29.6,30.40,ENE,68,1.8,1.8,59,0.00,,CLR,0.00,VWS V12.08,2013-11-20 15:41:00,
2013-11-20 10:46:00,43.3,30.0,30.39,NNE,22,0.0,5.4,59,0.00,,CLR,0.00,VWS V12.08,2013-11-20 15:46:00,
2013-11-20 10:51:00,43.7,30.3,30.39,NNW,338,1.6,5.4,59,0.00,,CLR,0.00,VWS V12.08,2013-11-20 15:51:00,
2013-11-20 10:56:00,43.7,29.9,30.38,ENE,68,0.0,5.4,58,0.00,,CLR,0.00,VWS V12.08,2013-11-20 15:56:00,
2013-11-20 11:01:00,43.9,30.1,30.38,ENE,68,4.0,4.0,58,0.00,,CLR,0.00,VWS V12.08,2013-11-20 16:01:00,
2013-11-20 11:06:00,44.4,30.6,30.37,ESE,112,0.0,4.0,58,0.00,,CLR,0.00,VWS V12.08,2013-11-20 16:06:00,
2013-11-20 11:11:00,45.0,30.7,30.37,NNE,22,3.8,4.0,57,0.00,,CLR,0.00,VWS V12.08,2013-11-20 16:11:00,
2013-11-20 11:16:00,45.3,31.0,30.37,ENE,68,2.7,4.0,57,0.00,,CLR,0.00,VWS V12.08,2013-11-20 16:16:00,
2013-11-20 11:21:00,45.7,30.9,30.37,SE,135,1.8,2.5,56,0.00,,CLR,0.00,VWS V12.08,2013-11-20 16:21:00,
2013-11-20 11:26:00,46.0,30.8,30.37,ENE,68,1.3,2.5,55,0.00,,CLR,0.00,VWS V12.08,2013-11-20 16:26:00,
2013-11-20 11:31:00,46.2,31.0,30.37,NNE,22,0.0,3.8,55,0.00,,CLR,0.00,VWS V12.08,2013-11-20 16:31:00,
2013-11-20 11:36:00,46.2,31.0,30.37,NNE,22,0.9,3.8,55,0.00,,CLR,0.00,VWS V12.08,2013-11-20 16:36:00,
2013-11-20 11:41:00,46.6,30.8,30.36,NE,45,0.0,0.2,54,0.00,,CLR,0.00,VWS V12.08,2013-11-20 16:41:00,
2013-11-20 11:46:00,46.6,30.8,30.35,WNW,292,0.0,2.5,54,0.00,,CLR,0.00,VWS V12.08,2013-11-20 16:46:00,
2013-11-20 11:51:00,46.8,30.5,30.35,NW,315,0.0,6.0,53,0.00,,CLR,0.00,VWS V12.08,2013-11-20 16:51:00,
2013-11-20 11:56:00,46.8,31.0,30.35,ENE,68,0.9,7.8,54,0.00,,CLR,0.00,VWS V12.08,2013-11-20 16:56:00,
2013-11-20 12:01:00,46.9,30.7,30.35,ENE,68,2.9,5.4,53,0.00,,CLR,0.00,VWS V12.08,2013-11-20 17:01:00,
2013-11-20 12:06:00,47.1,30.9,30.35,SSE,158,1.8,5.4,53,0.00,,CLR,0.00,VWS V12.08,2013-11-20 17:06:00,
2013-11-20 12:11:00,47.5,30.8,30.35,ENE,68,1.1,5.4,52,0.00,,CLR,0.00,VWS V12.08,2013-11-20 17:11:00,
2013-11-20 12:16:00,47.8,30.6,30.34,NW,315,0.0,5.4,51,0.00,,CLR,0.00,VWS V12.08,2013-11-20 17:16:00,
2013-11-20 12:21:00,47.8,30.6,30.34,ENE,68,4.7,4.7,51,0.00,,CLR,0.00,VWS V12.08,2013-11-20 17:21:00,
2013-11-20 12:26:00,47.8,30.6,30.34,ENE,68,0.0,4.7,51,0.00,,CLR,0.00,VWS V12.08,2013-11-20 17:26:00,
2013-11-20 12:31:00,48.0,30.8,30.34,NNE,22,2.2,5.8,51,0.00,,CLR,0.00,VWS V12.08,2013-11-20 17:31:00,
2013-11-20 12:36:00,48.0,30.8,30.33,East,90,3.8,5.8,51,0.00,,CLR,0.00,VWS V12.08,2013-11-20 17:36:00,
2013-11-20 12:41:00,48.0,30.8,30.33,NE,45,0.0,7.4,51,0.00,,CLR,0.00,VWS V12.08,2013-11-20 17:41:00,
2013-11-20 12:46:00,48.2,30.5,30.33,ENE,68,3.4,7.4,50,0.00,,CLR,0.00,VWS V12.08,2013-11-20 17:46:00,
2013-11-20 12:51:00,48.2,30.5,30.33,ESE,112,3.1,7.4,50,0.00,,CLR,0.00,VWS V12.08,2013-11-20 17:51:00,
2013-11-20 12:56:00,48.2,30.5,30.32,SE,135,0.0,7.4,50,0.00,,CLR,0.00,VWS V12.08,2013-11-20 17:56:00,
2013-11-20 13:01:00,48.4,30.6,30.32,NE,45,0.0,0.9,50,0.00,,CLR,0.00,VWS V12.08,2013-11-20 18:01:00,
2013-11-20 13:06:00,48.6,30.8,30.33,SSE,158,0.0,0.9,50,0.00,,CLR,0.00,VWS V12.08,2013-11-20 18:06:00,
2013-11-20 13:11:00,48.6,30.8,30.32,NNE,22,0.0,2.7,50,0.00,,CLR,0.00,VWS V12.08,2013-11-20 18:11:00,
2013-11-20 13:16:00,48.6,30.8,30.32,NE,45,0.0,2.7,50,0.00,,CLR,0.00,VWS V12.08,2013-11-20 18:16:00,
2013-11-20 13:21:00,48.7,31.0,30.32,East,90,0.0,3.8,50,0.00,,CLR,0.00,VWS V12.08,2013-11-20 18:21:00,
2013-11-20 13:26:00,48.9,31.1,30.32,SE,135,0.0,3.8,50,0.00,,CLR,0.00,VWS V12.08,2013-11-20 18:26:00,
2013-11-20 13:31:00,49.3,31.0,30.32,ENE,68,0.0,3.8,49,0.00,,CLR,0.00,VWS V12.08,2013-11-20 18:31:00,
2013-11-20 13:36:00,49.6,31.3,30.32,SE,135,0.0,3.8,49,0.00,,CLR,0.00,VWS V12.08,2013-11-20 18:36:00,
2013-11-20 13:41:00,49.8,31.9,30.31,ENE,68,0.0,1.8,50,0.00,,CLR,0.00,VWS V12.08,2013-11-20 18:41:00,
2013-11-20 13:46:00,50.2,31.3,30.31,NNE,22,0.0,3.8,48,0.00,,CLR,0.00,VWS V12.08,2013-11-20 18:46:00,
2013-11-20 13:51:00,50.2,30.8,30.31,North,0,0.0,3.8,47,0.00,,CLR,0.00,VWS V12.08,2013-11-20 18:51:00,
2013-11-20 13:56:00,50.2,30.8,30.31,NW,315,0.7,6.5,47,0.00,,CLR,0.00,VWS V12.08,2013-11-20 18:56:00,
2013-11-20 14:01:00,50.2,31.3,30.31,East,90,0.0,3.6,48,0.00,,CLR,0.00,VWS V12.08,2013-11-20 19:01:00,
2013-11-20 14:06:00,50.2,30.8,30.31,NNE,22,0.0,3.6,47,0.00,,CLR,0.00,VWS V12.08,2013-11-20 19:06:00,
2013-11-20 14:11:00,50.2,31.3,30.30,East,90,0.0,3.6,48,0.00,,CLR,0.00,VWS V12.08,2013-11-20 19:11:00,
2013-11-20 14:16:00,50.4,30.9,30.30,ENE,68,3.1,4.0,47,0.00,,CLR,0.00,VWS V12.08,2013-11-20 19:16:00,
2013-11-20 14:21:00,50.4,30.9,30.30,East,90,0.0,0.0,47,0.00,,CLR,0.00,VWS V12.08,2013-11-20 19:21:00,
2013-11-20 14:26:00,50.2,30.8,30.31,NE,45,0.4,1.8,47,0.00,,CLR,0.00,VWS V12.08,2013-11-20 19:26:00,
2013-11-20 14:31:00,50.2,30.2,30.31,NNE,22,0.7,5.1,46,0.00,,CLR,0.00,VWS V12.08,2013-11-20 19:31:00,
2013-11-20 14:36:00,50.2,30.2,30.31,ENE,68,2.5,5.1,46,0.00,,CLR,0.00,VWS V12.08,2013-11-20 19:36:00,
2013-11-20 14:41:00,49.8,30.4,30.31,East,90,0.0,0.0,47,0.00,,CLR,0.00,VWS V12.08,2013-11-20 19:41:00,
2013-11-20 14:46:00,49.8,30.4,30.30,WNW,292,0.0,3.4,47,0.00,,CLR,0.00,VWS V12.08,2013-11-20 19:46:00,
2013-11-20 14:51:00,49.8,30.4,30.30,ESE,112,1.6,3.6,47,0.00,,CLR,0.00,VWS V12.08,2013-11-20 19:51:00,
2013-11-20 14:56:00,49.8,30.4,30.31,SE,135,2.5,4.0,47,0.00,,CLR,0.00,VWS V12.08,2013-11-20 19:56:00,
2013-11-20 15:01:00,49.8,30.4,30.31,ENE,68,0.0,0.0,47,0.00,,CLR,0.00,VWS V12.08,2013-11-20 20:01:00,
2013-11-20 15:06:00,49.8,30.4,30.31,NW,315,2.7,3.1,47,0.00,,CLR,0.00,VWS V12.08,2013-11-20 20:06:00,
2013-11-20 15:11:00,49.6,30.2,30.31,NW,315,0.0,3.1,47,0.00,,CLR,0.00,VWS V12.08,2013-11-20 20:11:00,
2013-11-20 15:16:00,49.3,30.4,30.31,SE,135,3.1,3.1,48,0.00,,CLR,0.00,VWS V12.08,2013-11-20 20:16:00,
2013-11-20 15:21:00,49.3,29.9,30.31,ESE,112,1.1,1.1,47,0.00,,CLR,0.00,VWS V12.08,2013-11-20 20:21:00,
2013-11-20 15:26:00,49.1,30.3,30.31,East,90,0.0,3.1,48,0.00,,CLR,0.00,VWS V12.08,2013-11-20 20:26:00,
2013-11-20 15:31:00,48.9,30.1,30.31,East,90,0.0,3.1,48,0.00,,CLR,0.00,VWS V12.08,2013-11-20 20:31:00,
2013-11-20 15:36:00,48.9,30.1,30.31,ENE,68,3.6,3.6,48,0.00,,CLR,0.00,VWS V12.08,2013-11-20 20:36:00,
2013-11-20 15:41:00,48.7,30.5,30.31,SE,135,0.0,0.9,49,0.00,,CLR,0.00,VWS V12.08,2013-11-20 20:41:00,
2013-11-20 15:46:00,48.7,30.5,30.31,WSW,248,0.0,1.1,49,0.00,,CLR,0.00,VWS V12.08,2013-11-20 20:46:00,
2013-11-20 15:51:00,48.4,29.6,30.31,North,0,0.0,1.1,48,0.00,,CLR,0.00,VWS V12.08,2013-11-20 20:51:00,
2013-11-20 15:56:00,48.2,29.5,30.31,NNE,22,0.0,1.1,48,0.00,,CLR,0.00,VWS V12.08,2013-11-20 20:56:00,
2013-11-20 16:01:00,48.2,29.5,30.30,East,90,0.0,0.9,48,0.00,,CLR,0.00,VWS V12.08,2013-11-20 21:01:00,
2013-11-20 16:06:00,48.0,29.3,30.31,NE,45,0.0,4.5,48,0.00,,CLR,0.00,VWS V12.08,2013-11-20 21:06:00,
2013-11-20 16:11:00,47.8,29.1,30.31,ESE,112,0.0,4.5,48,0.00,,CLR,0.00,VWS V12.08,2013-11-20 21:11:00,
2013-11-20 16:16:00,47.5,28.8,30.31,East,90,0.0,4.5,48,0.00,,CLR,0.00,VWS V12.08,2013-11-20 21:16:00,
2013-11-20 16:21:00,47.3,29.1,30.31,ENE,68,0.0,1.8,49,0.00,,CLR,0.00,VWS V12.08,2013-11-20 21:21:00,
2013-11-20 16:26:00,47.1,29.0,30.31,NE,45,0.0,3.1,49,0.00,,CLR,0.00,VWS V12.08,2013-11-20 21:26:00,
2013-11-20 16:31:00,47.1,29.0,30.31,ENE,68,0.0,3.1,49,0.00,,CLR,0.00,VWS V12.08,2013-11-20 21:31:00,
2013-11-20 16:36:00,46.9,29.3,30.31,ENE,68,0.0,3.1,50,0.00,,CLR,0.00,VWS V12.08,2013-11-20 21:36:00,
2013-11-20 16:41:00,46.6,29.4,30.31,NE,45,0.0,0.7,51,0.00,,CLR,0.00,VWS V12.08,2013-11-20 21:41:00,
2013-11-20 16:46:00,46.6,29.4,30.31,NE,45,0.0,0.7,51,0.00,,CLR,0.00,VWS V12.08,2013-11-20 21:46:00,
2013-11-20 16:51:00,46.2,29.6,30.31,NE,45,0.0,0.7,52,0.00,,CLR,0.00,VWS V12.08,2013-11-20 21:51:00,
2013-11-20 16:56:00,45.9,29.2,30.31,ENE,68,0.0,0.7,52,0.00,,CLR,0.00,VWS V12.08,2013-11-20 21:56:00,
2013-11-20 17:01:00,45.3,29.2,30.31,ENE,68,0.0,0.0,53,0.00,,CLR,0.00,VWS V12.08,2013-11-20 22:01:00,
2013-11-20 17:06:00,45.0,28.9,30.31,ENE,68,0.0,0.0,53,0.00,,CLR,0.00,VWS V12.08,2013-11-20 22:06:00,
2013-11-20 17:11:00,45.0,28.9,30.32,ENE,68,0.0,0.0,53,0.00,,CLR,0.00,VWS V12.08,2013-11-20 22:11:00,
2013-11-20 17:16:00,44.4,28.8,30.32,ENE,68,0.0,0.0,54,0.00,,CLR,0.00,VWS V12.08,2013-11-20 22:16:00,
2013-11-20 17:21:00,44.4,28.8,30.32,ENE,68,0.0,0.0,54,0.00,,CLR,0.00,VWS V12.08,2013-11-20 22:21:00,
2013-11-20 17:26:00,43.7,29.0,30.32,ENE,68,0.0,0.0,56,0.00,,CLR,0.00,VWS V12.08,2013-11-20 22:26:00,
2013-11-20 17:31:00,43.5,29.3,30.32,ENE,68,0.0,0.0,57,0.00,,CLR,0.00,VWS V12.08,2013-11-20 22:31:00,
2013-11-20 17:36:00,43.5,29.3,30.32,ENE,68,0.0,0.0,57,0.00,,CLR,0.00,VWS V12.08,2013-11-20 22:36:00,
2013-11-20 17:41:00,43.5,29.3,30.32,ENE,68,0.0,0.0,57,0.00,,CLR,0.00,VWS V12.08,2013-11-20 22:41:00,
2013-11-20 17:46:00,43.5,29.3,30.32,ENE,68,0.0,0.0,57,0.00,,CLR,0.00,VWS V12.08,2013-11-20 22:46:00,
2013-11-20 17:51:00,43.5,29.3,30.33,ENE,68,0.0,0.0,57,0.00,,CLR,0.00,VWS V12.08,2013-11-20 22:51:00,
2013-11-20 17:56:00,41.7,28.5,30.34,ENE,68,0.0,0.0,59,0.00,,CLR,0.00,VWS V12.08,2013-11-20 22:56:00,
2013-11-20 18:01:00,41.5,28.7,30.34,ENE,68,0.0,0.0,60,0.00,,CLR,0.00,VWS V12.08,2013-11-20 23:01:00,
2013-11-20 18:06:00,41.5,28.7,30.34,ENE,68,0.0,0.0,60,0.00,,CLR,0.00,VWS V12.08,2013-11-20 23:06:00,
2013-11-20 18:11:00,41.0,28.6,30.35,ENE,68,0.0,0.0,61,0.00,,CLR,0.00,VWS V12.08,2013-11-20 23:11:00,
2013-11-20 18:16:00,40.8,28.4,30.35,ENE,68,0.0,0.0,61,0.00,,CLR,0.00,VWS V12.08,2013-11-20 23:16:00,
2013-11-20 18:21:00,40.6,28.3,30.35,ENE,68,0.0,0.0,61,0.00,,CLR,0.00,VWS V12.08,2013-11-20 23:21:00,
2013-11-20 18:26:00,40.5,28.5,30.35,ENE,68,0.0,0.0,62,0.00,,CLR,0.00,VWS V12.08,2013-11-20 23:26:00,
2013-11-20 18:31:00,40.3,28.3,30.35,ENE,68,0.0,0.0,62,0.00,,CLR,0.00,VWS V12.08,2013-11-20 23:31:00,
2013-11-20 18:36:00,39.9,28.4,30.36,ESE,112,0.0,0.0,63,0.00,,CLR,0.00,VWS V12.08,2013-11-20 23:36:00,
2013-11-20 18:41:00,39.7,28.2,30.36,East,90,0.0,0.0,63,0.00,,CLR,0.00,VWS V12.08,2013-11-20 23:41:00,
2013-11-20 18:46:00,39.6,28.0,30.36,East,90,0.0,0.0,63,0.00,,CLR,0.00,VWS V12.08,2013-11-20 23:46:00,
2013-11-20 18:51:00,39.0,27.5,30.35,East,90,0.0,0.0,63,0.00,,CLR,0.00,VWS V12.08,2013-11-20 23:51:00,
2013-11-20 18:56:00,39.0,27.9,30.36,East,90,0.0,0.0,64,0.00,,CLR,0.00,VWS V12.08,2013-11-20 23:56:00,
2013-11-20 19:01:00,38.8,27.7,30.36,East,90,0.0,0.0,64,0.00,,CLR,0.00,VWS V12.08,2013-11-21 00:01:00,
2013-11-20 19:06:00,38.5,27.8,30.36,East,90,0.0,0.0,65,0.00,,CLR,0.00,VWS V12.08,2013-11-21 00:06:00,
2013-11-20 19:11:00,38.5,28.1,30.36,East,90,0.0,0.0,66,0.00,,CLR,0.00,VWS V12.08,2013-11-21 00:11:00,
2013-11-20 19:16:00,38.3,28.0,30.36,ESE,112,0.0,0.0,66,0.00,,CLR,0.00,VWS V12.08,2013-11-21 00:16:00,
2013-11-20 19:21:00,38.1,27.8,30.36,ESE,112,0.0,0.0,66,0.00,,CLR,0.00,VWS V12.08,2013-11-21 00:21:00,
2013-11-20 19:26:00,37.8,27.8,30.36,ESE,112,0.0,0.0,67,0.00,,CLR,0.00,VWS V12.08,2013-11-21 00:26:00,
2013-11-20 19:31:00,37.6,27.6,30.37,ESE,112,0.0,0.0,67,0.00,,CLR,0.00,VWS V12.08,2013-11-21 00:31:00,
2013-11-20 19:36:00,37.6,28.0,30.37,ESE,112,0.0,0.0,68,0.00,,CLR,0.00,VWS V12.08,2013-11-21 00:36:00,
2013-11-20 19:41:00,37.2,27.6,30.37,ESE,112,0.0,0.0,68,0.00,,CLR,0.00,VWS V12.08,2013-11-21 00:41:00,
2013-11-20 19:46:00,37.2,27.6,30.37,ESE,112,0.0,0.0,68,0.00,,CLR,0.00,VWS V12.08,2013-11-21 00:46:00,
2013-11-20 19:51:00,37.0,27.5,30.37,ESE,112,0.0,0.0,68,0.00,,CLR,0.00,VWS V12.08,2013-11-21 00:51:00,
2013-11-20 19:56:00,37.0,27.5,30.37,ESE,112,0.0,0.0,68,0.00,,CLR,0.00,VWS V12.08,2013-11-21 00:56:00,
2013-11-20 20:01:00,36.5,27.3,30.37,ESE,112,0.0,0.0,69,0.00,,CLR,0.00,VWS V12.08,2013-11-21 01:01:00,
2013-11-20 20:06:00,36.3,27.1,30.38,ESE,112,0.0,0.0,69,0.00,,CLR,0.00,VWS V12.08,2013-11-21 01:06:00,
2013-11-20 20:11:00,36.3,27.5,30.38,ESE,112,0.0,0.0,70,0.00,,CLR,0.00,VWS V12.08,2013-11-21 01:11:00,
2013-11-20 20:16:00,36.1,27.7,30.38,ESE,112,0.0,0.0,71,0.00,,CLR,0.00,VWS V12.08,2013-11-21 01:16:00,
2013-11-20 20:21:00,36.1,27.7,30.39,ESE,112,0.0,0.0,71,0.00,,CLR,0.00,VWS V12.08,2013-11-21 01:21:00,
2013-11-20 20:26:00,36.0,27.5,30.40,ESE,112,0.0,0.0,71,0.00,,CLR,0.00,VWS V12.08,2013-11-21 01:26:00,
2013-11-20 20:31:00,36.0,27.5,30.39,ESE,112,0.0,0.0,71,0.00,,CLR,0.00,VWS V12.08,2013-11-21 01:31:00,
2013-11-20 20:36:00,35.8,27.6,30.39,ESE,112,0.0,0.0,72,0.00,,CLR,0.00,VWS V12.08,2013-11-21 01:36:00,
2013-11-20 20:41:00,35.8,27.6,30.40,East,90,0.0,0.0,72,0.00,,CLR,0.00,VWS V12.08,2013-11-21 01:41:00,
2013-11-20 20:46:00,35.8,27.6,30.40,East,90,0.0,0.0,72,0.00,,CLR,0.00,VWS V12.08,2013-11-21 01:46:00,
2013-11-20 20:51:00,35.8,27.6,30.40,East,90,0.0,0.0,72,0.00,,CLR,0.00,VWS V12.08,2013-11-21 01:51:00,
2013-11-20 20:56:00,35.8,28.0,30.40,East,90,0.0,0.0,73,0.00,,CLR,0.00,VWS V12.08,2013-11-21 01:56:00,
2013-11-20 21:01:00,35.6,27.8,30.40,East,90,0.0,0.0,73,0.00,,CLR,0.00,VWS V12.08,2013-11-21 02:01:00,
2013-11-20 21:06:00,35.4,27.6,30.40,East,90,0.0,0.0,73,0.00,,CLR,0.00,VWS V12.08,2013-11-21 02:06:00,
2013-11-20 21:11:00,35.4,28.0,30.40,ESE,112,0.0,0.0,74,0.00,,CLR,0.00,VWS V12.08,2013-11-21 02:11:00,
2013-11-20 21:16:00,35.4,28.0,30.40,ESE,112,0.0,0.0,74,0.00,,CLR,0.00,VWS V12.08,2013-11-21 02:16:00,
2013-11-20 21:21:00,35.4,28.0,30.40,ESE,112,0.0,0.0,74,0.00,,CLR,0.00,VWS V12.08,2013-11-21 02:21:00,
2013-11-20 21:26:00,35.4,28.0,30.40,ESE,112,0.0,0.0,74,0.00,,CLR,0.00,VWS V12.08,2013-11-21 02:26:00,
2013-11-20 21:31:00,35.4,28.0,30.40,ESE,112,0.0,0.0,74,0.00,,CLR,0.00,VWS V12.08,2013-11-21 02:31:00,
2013-11-20 21:36:00,35.4,28.0,30.40,ESE,112,0.0,0.0,74,0.00,,CLR,0.00,VWS V12.08,2013-11-21 02:36:00,
2013-11-20 21:41:00,35.4,28.0,30.40,ESE,112,0.0,0.0,74,0.00,,CLR,0.00,VWS V12.08,2013-11-21 02:41:00,
2013-11-20 21:46:00,35.4,28.0,30.40,ESE,112,0.0,0.0,74,0.00,,CLR,0.00,VWS V12.08,2013-11-21 02:46:00,
2013-11-20 21:51:00,35.6,28.1,30.40,ESE,112,0.0,0.0,74,0.00,,CLR,0.00,VWS V12.08,2013-11-21 02:51:00,
2013-11-20 21:56:00,35.8,28.3,30.40,ESE,112,0.0,0.0,74,0.00,,CLR,0.00,VWS V12.08,2013-11-21 02:56:00,
2013-11-20 22:01:00,35.8,28.3,30.41,East,90,0.0,0.0,74,0.00,,CLR,0.00,VWS V12.08,2013-11-21 03:01:00,
2013-11-20 22:06:00,35.6,28.1,30.41,East,90,0.0,0.0,74,0.00,,CLR,0.00,VWS V12.08,2013-11-21 03:06:00,
2013-11-20 22:11:00,35.4,28.0,30.41,East,90,0.0,0.0,74,0.00,,CLR,0.00,VWS V12.08,2013-11-21 03:11:00,
2013-11-20 22:16:00,35.4,28.0,30.41,East,90,0.0,0.0,74,0.00,,CLR,0.00,VWS V12.08,2013-11-21 03:16:00,
2013-11-20 22:21:00,35.4,28.0,30.41,East,90,0.0,0.0,74,0.00,,CLR,0.00,VWS V12.08,2013-11-21 03:21:00,
2013-11-20 22:26:00,35.4,28.0,30.41,East,90,0.0,0.0,74,0.00,,CLR,0.00,VWS V12.08,2013-11-21 03:26:00,
2013-11-20 22:31:00,35.4,28.0,30.41,East,90,0.0,0.0,74,0.00,,CLR,0.00,VWS V12.08,2013-11-21 03:31:00,
2013-11-20 22:36:00,35.4,28.0,30.40,East,90,0.0,0.0,74,0.00,,CLR,0.00,VWS V12.08,2013-11-21 03:36:00,
2013-11-20 22:41:00,35.8,28.6,30.41,East,90,0.0,0.0,75,0.00,,CLR,0.00,VWS V12.08,2013-11-21 03:41:00,
2013-11-20 22:46:00,35.8,28.6,30.41,East,90,0.0,0.0,75,0.00,,CLR,0.00,VWS V12.08,2013-11-21 03:46:00,
2013-11-20 22:51:00,35.8,28.3,30.42,East,90,0.0,0.0,74,0.00,,CLR,0.00,VWS V12.08,2013-11-21 03:51:00,
2013-11-20 22:56:00,35.8,28.3,30.42,East,90,0.0,0.0,74,0.00,,CLR,0.00,VWS V12.08,2013-11-21 03:56:00,
2013-11-20 23:01:00,36.0,28.5,30.42,East,90,0.0,0.0,74,0.00,,CLR,0.00,VWS V12.08,2013-11-21 04:01:00,
2013-11-20 23:06:00,36.1,29.0,30.41,East,90,0.0,0.0,75,0.00,,CLR,0.00,VWS V12.08,2013-11-21 04:06:00,
2013-11-20 23:11:00,36.3,29.2,30.42,East,90,0.0,0.0,75,0.00,,CLR,0.00,VWS V12.08,2013-11-21 04:11:00,
2013-11-20 23:16:00,36.3,29.2,30.42,East,90,0.0,0.0,75,0.00,,CLR,0.00,VWS V12.08,2013-11-21 04:16:00,
2013-11-20 23:21:00,36.1,28.7,30.43,East,90,0.0,0.0,74,0.00,,CLR,0.00,VWS V12.08,2013-11-21 04:21:00,
2013-11-20 23:26:00,36.3,28.8,30.42,East,90,0.0,0.0,74,0.00,,CLR,0.00,VWS V12.08,2013-11-21 04:26:00,
2013-11-20 23:31:00,36.3,28.8,30.42,East,90,0.0,0.0,74,0.00,,CLR,0.00,VWS V12.08,2013-11-21 04:31:00,
2013-11-20 23:36:00,36.5,29.3,30.42,ESE,112,0.0,0.0,75,0.00,,CLR,0.00,VWS V12.08,2013-11-21 04:36:00,
2013-11-20 23:41:00,36.5,29.3,30.42,ESE,112,0.0,0.0,75,0.00,,CLR,0.00,VWS V12.08,2013-11-21 04:41:00,
2013-11-20 23:47:00,36.7,29.5,30.42,East,90,0.0,0.0,75,0.00,,CLR,0.00,VWS V12.08,2013-11-21 04:47:00,
2013-11-20 23:52:00,36.9,29.7,30.42,ESE,112,0.0,0.0,75,0.00,,CLR,0.00,VWS V12.08,2013-11-21 04:52:00,
2013-11-20 23:57:00,37.0,29.9,30.43,East,90,0.0,0.0,75,0.00,,CLR,0.00,VWS V12.08,2013-11-21 04:57:00,